createdAt,value
2023-05-16T00:00:16.746Z,2.17
2023-05-16T00:03:39.310Z,2.97
2023-05-16T00:07:01.698Z,1.15
2023-05-16T00:10:24.134Z,1.10
2023-05-16T00:13:47.826Z,1.48
2023-05-16T00:17:11.605Z,1.13
2023-05-16T00:20:34.686Z,1.58
2023-05-16T00:23:56.923Z,2.42
2023-05-16T00:27:19.169Z,1.25
2023-05-16T00:30:41.544Z,1.05
2023-05-16T00:34:03.758Z,0.95
2023-05-16T00:37:26.116Z,1.30
2023-05-16T00:40:49.558Z,1.23
2023-05-16T00:44:12.039Z,0.70
2023-05-16T00:47:34.508Z,1.52
2023-05-16T00:50:57.008Z,1.02
2023-05-16T00:54:22.725Z,0.70
2023-05-16T00:57:45.305Z,1.70
2023-05-16T01:01:08.077Z,0.85
2023-05-16T01:04:32.225Z,0.63
2023-05-16T01:07:55.428Z,1.08
2023-05-16T01:11:26.969Z,0.50
2023-05-16T01:15:13.723Z,1.50
2023-05-16T01:18:52.888Z,1.45
2023-05-16T01:22:52.639Z,0.80
2023-05-16T01:26:27.186Z,2.28
2023-05-16T01:29:49.413Z,1.52
2023-05-16T01:33:12.446Z,0.70
2023-05-16T01:36:52.616Z,0.80
2023-05-16T01:40:23.527Z,2.85
2023-05-16T01:43:52.771Z,0.45
2023-05-16T01:47:17.355Z,0.93
2023-05-16T01:50:45.198Z,3.40
2023-05-16T01:54:13.743Z,0.50
2023-05-16T01:57:37.668Z,1.23
2023-05-16T02:01:04.784Z,1.77
2023-05-16T02:04:27.136Z,0.88
2023-05-16T02:07:49.925Z,0.50
2023-05-16T02:11:12.142Z,1.05
2023-05-16T02:14:34.403Z,0.77
2023-05-16T02:17:56.693Z,1.35
2023-05-16T02:21:19.307Z,1.75
2023-05-16T02:24:41.507Z,0.52
2023-05-16T02:28:03.798Z,0.40
2023-05-16T02:31:31.354Z,0.45
2023-05-16T02:34:53.809Z,2.78
2023-05-16T02:38:17.581Z,0.63
2023-05-16T02:41:39.869Z,0.98
2023-05-16T02:45:02.214Z,1.13
2023-05-16T02:48:24.590Z,1.13
2023-05-16T02:51:47.202Z,0.85
2023-05-16T02:55:21.759Z,1.00
2023-05-16T03:02:09.185Z,0.50
2023-05-16T03:05:32.208Z,1.38
2023-05-16T03:08:55.220Z,0.77
2023-05-16T03:12:17.743Z,0.82
2023-05-16T03:15:40.019Z,0.40
2023-05-16T03:19:02.455Z,1.65
2023-05-16T03:22:24.721Z,0.50
2023-05-16T03:25:47.315Z,0.30
2023-05-16T03:29:09.999Z,1.35
2023-05-16T03:32:32.342Z,1.50
2023-05-16T03:35:54.794Z,1.58
2023-05-16T03:39:17.421Z,1.67
2023-05-16T03:42:40.276Z,0.80
2023-05-16T03:46:02.583Z,0.60
2023-05-16T03:49:30.059Z,0.40
2023-05-16T03:52:54.000Z,0.52
2023-05-16T03:56:16.353Z,0.52
2023-05-16T03:59:39.181Z,0.32
2023-05-16T04:03:01.651Z,0.50
2023-05-16T04:06:24.004Z,1.27
2023-05-16T04:09:46.315Z,0.85
2023-05-16T04:13:08.551Z,0.68
2023-05-16T04:16:30.825Z,0.38
2023-05-16T04:19:53.183Z,1.38
2023-05-16T04:23:16.105Z,0.50
2023-05-16T04:26:38.330Z,0.65
2023-05-16T04:30:01.345Z,0.63
2023-05-16T04:33:23.670Z,2.08
2023-05-16T04:36:45.888Z,0.30
2023-05-16T04:40:09.877Z,0.30
2023-05-16T04:43:32.420Z,0.32
2023-05-16T04:46:55.309Z,0.40
2023-05-16T04:50:18.156Z,0.52
2023-05-16T04:53:40.523Z,2.28
2023-05-16T04:57:02.919Z,1.02
2023-05-16T05:00:25.876Z,2.72
2023-05-16T05:03:48.590Z,0.82
2023-05-16T05:07:10.820Z,0.65
2023-05-16T05:10:33.077Z,0.45
2023-05-16T05:13:55.280Z,0.52
2023-05-16T05:17:18.291Z,0.90
2023-05-16T05:20:40.598Z,0.30
2023-05-16T05:24:02.882Z,0.65
2023-05-16T05:27:25.506Z,4.88
2023-05-16T05:30:49.161Z,0.88
2023-05-16T05:34:11.380Z,0.93
2023-05-16T05:37:33.775Z,1.23
2023-05-16T05:40:56.177Z,3.75
2023-05-16T05:44:18.496Z,0.80
2023-05-16T05:47:40.823Z,0.75
2023-05-16T05:51:03.397Z,0.40
2023-05-16T05:54:26.006Z,2.65
2023-05-16T05:57:48.284Z,3.33
2023-05-16T06:01:13.460Z,0.55
2023-05-16T06:07:57.915Z,0.40
2023-05-16T06:11:20.182Z,2.65
2023-05-16T06:14:42.419Z,2.78
2023-05-16T06:18:05.040Z,2.38
2023-05-16T06:21:27.384Z,5.35
2023-05-16T06:24:49.601Z,5.80
2023-05-16T06:28:11.850Z,1.30
2023-05-16T06:31:34.341Z,1.73
2023-05-16T06:34:57.090Z,1.58
2023-05-16T06:38:20.016Z,0.47
2023-05-16T06:41:42.336Z,1.65
2023-05-16T06:45:11.334Z,0.35
2023-05-16T06:48:36.201Z,0.90
2023-05-16T06:51:58.508Z,2.45
2023-05-16T06:55:21.008Z,2.10
2023-05-16T06:58:43.299Z,2.05
2023-05-16T07:02:08.360Z,1.95
2023-05-16T07:08:52.984Z,1.65
2023-05-16T07:12:15.531Z,2.20
2023-05-16T07:15:37.940Z,3.50
2023-05-16T07:19:00.559Z,2.88
2023-05-16T07:22:22.886Z,2.38
2023-05-16T07:25:45.255Z,3.40
2023-05-16T07:29:07.723Z,3.58
2023-05-16T07:32:30.097Z,5.18
2023-05-16T07:35:58.185Z,8.88
2023-05-16T07:39:26.674Z,1.83
2023-05-16T07:42:48.948Z,3.45
2023-05-16T07:46:11.963Z,7.10
2023-05-16T07:49:34.483Z,3.67
2023-05-16T07:52:56.807Z,2.85
2023-05-16T07:56:19.252Z,3.28
2023-05-16T07:59:42.046Z,6.63
2023-05-16T08:03:05.312Z,2.47
2023-05-16T08:06:27.686Z,30.63
2023-05-16T08:09:49.991Z,32.58
2023-05-16T08:13:12.300Z,13.07
2023-05-16T08:16:34.753Z,4.88
2023-05-16T08:19:59.211Z,10.98
2023-05-16T08:23:21.529Z,3.67
2023-05-16T08:26:43.873Z,2.65
2023-05-16T08:30:07.050Z,2.50
2023-05-16T08:33:29.405Z,3.80
2023-05-16T08:36:51.756Z,2.33
2023-05-16T08:40:15.451Z,3.15
2023-05-16T08:43:37.889Z,2.75
2023-05-16T08:47:05.814Z,3.40
2023-05-16T08:50:31.869Z,3.10
2023-05-16T08:54:06.254Z,3.38
2023-05-16T08:57:29.901Z,3.63
2023-05-16T09:00:52.334Z,3.42
2023-05-16T09:04:16.462Z,6.47
2023-05-16T09:07:39.430Z,5.10
2023-05-16T09:11:02.807Z,3.40
2023-05-16T09:14:25.087Z,2.03
2023-05-16T09:17:49.002Z,1.98
2023-05-16T09:21:13.538Z,4.07
2023-05-16T09:24:39.913Z,3.15
2023-05-16T09:28:03.411Z,2.00
2023-05-16T09:31:28.189Z,1.73
2023-05-16T09:34:52.675Z,1.33
2023-05-16T09:38:17.171Z,4.50
2023-05-16T09:41:39.664Z,1.65
2023-05-16T09:45:04.931Z,9.55
2023-05-16T09:48:28.596Z,2.92
2023-05-16T09:51:51.210Z,3.53
2023-05-16T09:55:13.590Z,2.03
2023-05-16T09:58:37.668Z,1.00
2023-05-16T10:02:00.549Z,1.33
2023-05-16T10:05:24.281Z,3.85
2023-05-16T10:08:47.937Z,1.50
2023-05-16T10:12:13.091Z,5.20
2023-05-16T10:19:00.269Z,6.03
2023-05-16T10:22:26.447Z,2.55
2023-05-16T10:25:49.764Z,4.90
2023-05-16T10:29:12.648Z,11.88
2023-05-16T10:32:35.357Z,8.40
2023-05-16T10:35:58.461Z,3.13
2023-05-16T10:39:21.879Z,4.25
2023-05-16T10:43:01.485Z,5.40
2023-05-16T10:46:24.505Z,3.42
2023-05-16T10:49:47.035Z,1.60
2023-05-16T10:53:31.406Z,6.60
2023-05-16T10:56:57.225Z,3.83
2023-05-16T11:00:23.087Z,1.58
2023-05-16T11:03:57.382Z,4.35
2023-05-16T11:07:21.738Z,5.18
2023-05-16T11:10:44.063Z,3.43
2023-05-16T11:14:06.709Z,2.40
2023-05-16T11:17:29.366Z,1.58
2023-05-16T11:20:53.159Z,1.63
2023-05-16T11:24:35.182Z,2.95
2023-05-16T11:27:59.278Z,1.13
2023-05-16T11:31:22.016Z,2.25
2023-05-16T11:34:45.585Z,1.45
2023-05-16T11:38:13.828Z,2.30
2023-05-16T11:41:36.897Z,3.78
2023-05-16T11:45:05.331Z,1.42
2023-05-16T11:48:35.666Z,2.92
2023-05-16T11:51:58.419Z,3.90
2023-05-16T11:55:33.207Z,3.08
2023-05-16T11:59:04.601Z,2.67
2023-05-16T12:02:29.756Z,4.30
2023-05-16T12:09:18.395Z,0.60
2023-05-16T12:16:04.578Z,1.52
2023-05-16T12:19:27.294Z,0.85
2023-05-16T12:22:49.922Z,2.42
2023-05-16T12:26:12.256Z,0.75
2023-05-16T12:29:34.650Z,4.72
2023-05-16T12:33:03.360Z,0.55
2023-05-16T12:36:32.822Z,1.50
2023-05-16T12:40:00.636Z,3.65
2023-05-16T12:43:23.540Z,0.70
2023-05-16T12:46:48.454Z,2.72
2023-05-16T12:50:14.777Z,1.67
2023-05-16T12:53:57.559Z,0.95
2023-05-16T12:57:24.121Z,1.08
2023-05-16T13:00:46.389Z,1.08
2023-05-16T13:04:11.049Z,2.05
2023-05-16T13:07:34.813Z,2.95
2023-05-16T13:10:57.114Z,1.33
2023-05-16T13:14:19.469Z,2.13
2023-05-16T13:17:45.908Z,3.53
2023-05-16T13:21:08.330Z,0.68
2023-05-16T13:24:30.856Z,3.30
2023-05-16T13:27:53.176Z,0.88
2023-05-16T13:31:15.738Z,3.25
2023-05-16T13:34:38.159Z,3.38
2023-05-16T13:38:00.659Z,3.42
2023-05-16T13:41:22.968Z,3.22
2023-05-16T13:44:45.428Z,2.90
2023-05-16T13:48:07.843Z,7.38
2023-05-16T13:51:30.172Z,4.80
2023-05-16T13:54:52.499Z,1.95
2023-05-16T13:58:14.775Z,2.15
2023-05-16T14:01:37.151Z,9.05
2023-05-16T14:04:59.398Z,1.15
2023-05-16T14:08:21.888Z,1.48
2023-05-16T14:11:44.313Z,0.95
2023-05-16T14:15:07.380Z,3.22
2023-05-16T14:18:29.675Z,1.10
2023-05-16T14:21:52.029Z,0.82
2023-05-16T14:25:14.410Z,1.15
2023-05-16T14:28:36.699Z,1.35
2023-05-16T14:31:59.052Z,0.90
2023-05-16T14:35:21.348Z,0.82
2023-05-16T14:38:43.795Z,0.55
2023-05-16T14:42:08.570Z,1.60
2023-05-16T14:48:53.635Z,1.27
2023-05-16T14:52:16.012Z,0.55
2023-05-16T14:55:38.358Z,2.05
2023-05-16T14:59:01.603Z,0.55
2023-05-16T15:02:24.094Z,0.43
2023-05-16T15:05:46.449Z,0.82
2023-05-16T15:09:08.892Z,0.73
2023-05-16T15:12:31.503Z,1.75
2023-05-16T15:15:53.901Z,0.47
2023-05-16T15:19:16.281Z,3.38
2023-05-16T15:22:41.694Z,1.55
2023-05-16T15:26:04.637Z,3.78
2023-05-16T15:29:26.997Z,1.63
2023-05-16T15:32:49.380Z,1.17
2023-05-16T15:36:11.840Z,1.42
2023-05-16T15:39:34.082Z,1.58
2023-05-16T15:42:56.376Z,1.65
2023-05-16T15:46:18.726Z,1.55
2023-05-16T15:49:41.568Z,4.40
2023-05-16T15:53:04.104Z,3.40
2023-05-16T15:56:26.466Z,1.10
2023-05-16T15:59:48.699Z,0.98
2023-05-16T16:03:11.307Z,1.13
2023-05-16T16:06:33.661Z,1.15
2023-05-16T16:09:55.961Z,4.68
2023-05-16T16:13:18.236Z,1.15
2023-05-16T16:16:41.043Z,4.55
2023-05-16T16:20:03.700Z,1.75
2023-05-16T16:23:25.991Z,1.88
2023-05-16T16:26:48.366Z,1.33
2023-05-16T16:30:11.957Z,5.07
2023-05-16T16:33:34.566Z,2.45
2023-05-16T16:36:56.939Z,0.80
2023-05-16T16:40:19.529Z,2.28
2023-05-16T16:43:42.224Z,4.97
2023-05-16T16:47:04.712Z,5.20
2023-05-16T16:50:27.240Z,2.53
2023-05-16T16:53:49.554Z,3.88
2023-05-16T16:57:12.054Z,0.52
2023-05-16T17:00:34.397Z,2.60
2023-05-16T17:03:56.798Z,12.18
2023-05-16T17:07:19.123Z,63.55
2023-05-16T17:10:41.458Z,71.53
2023-05-16T17:14:06.154Z,70.45
2023-05-16T17:17:28.602Z,61.42
2023-05-16T17:20:52.063Z,76.88
2023-05-16T17:24:14.525Z,66.75
2023-05-16T17:27:37.039Z,52.67
2023-05-16T17:30:59.722Z,54.25
2023-05-16T17:34:22.024Z,58.72
2023-05-16T17:37:44.539Z,47.28
2023-05-16T17:41:06.866Z,48.47
2023-05-16T17:44:29.172Z,42.60
2023-05-16T17:47:51.576Z,34.28
2023-05-16T17:51:13.910Z,42.67
2023-05-16T17:54:36.469Z,47.22
2023-05-16T17:57:58.750Z,38.72
2023-05-16T18:01:21.191Z,25.58
2023-05-16T18:04:43.611Z,36.20
2023-05-16T18:08:08.013Z,32.47
2023-05-16T18:14:54.123Z,20.83
2023-05-16T18:18:17.591Z,19.35
2023-05-16T18:21:40.462Z,27.92
2023-05-16T18:25:09.210Z,24.98
2023-05-16T18:28:31.541Z,16.30
2023-05-16T18:31:54.098Z,26.23
2023-05-16T18:35:16.909Z,24.00
2023-05-16T18:38:39.357Z,10.43
2023-05-16T18:42:01.695Z,13.38
2023-05-16T18:45:24.077Z,17.33
2023-05-16T18:48:46.632Z,19.20
2023-05-16T18:52:10.348Z,15.32
2023-05-16T18:55:33.647Z,9.63
2023-05-16T18:58:56.872Z,24.27
2023-05-16T19:02:24.452Z,19.75
2023-05-16T19:05:53.684Z,13.50
2023-05-16T19:09:16.200Z,13.07
2023-05-16T19:12:38.482Z,11.40
2023-05-16T19:16:00.844Z,7.70
2023-05-16T19:19:23.466Z,12.45
2023-05-16T19:22:45.999Z,15.43
2023-05-16T19:26:08.334Z,11.63
2023-05-16T19:29:30.639Z,9.63
2023-05-16T19:32:53.117Z,6.20
2023-05-16T19:36:15.392Z,9.60
2023-05-16T19:39:37.828Z,9.88
2023-05-16T19:43:00.741Z,9.40
2023-05-16T19:46:23.490Z,10.90
2023-05-16T19:49:45.929Z,9.40
2023-05-16T19:53:08.729Z,6.47
2023-05-16T19:56:31.022Z,10.13
2023-05-16T19:59:53.351Z,5.38
2023-05-16T20:03:15.718Z,7.47
2023-05-16T20:06:38.174Z,10.38
2023-05-16T20:10:00.926Z,5.97
2023-05-16T20:13:23.292Z,7.32
2023-05-16T20:16:46.034Z,7.20
2023-05-16T20:20:09.780Z,5.00
2023-05-16T20:23:32.270Z,4.40
2023-05-16T20:26:54.589Z,3.45
2023-05-16T20:30:16.883Z,5.20
2023-05-16T20:33:39.193Z,2.63
2023-05-16T20:37:01.525Z,6.05
2023-05-16T20:40:23.956Z,9.70
2023-05-16T20:43:46.936Z,3.97
2023-05-16T20:47:09.528Z,4.50
2023-05-16T20:50:31.915Z,3.95
2023-05-16T20:53:54.182Z,5.03
2023-05-16T20:57:16.453Z,6.88
2023-05-16T21:00:38.811Z,6.18
2023-05-16T21:04:01.706Z,15.52
2023-05-16T21:07:24.105Z,6.65
2023-05-16T21:10:46.481Z,7.80
2023-05-16T21:14:08.797Z,2.47
2023-05-16T21:17:31.269Z,5.13
2023-05-16T21:20:53.683Z,2.55
2023-05-16T21:24:16.074Z,7.63
2023-05-16T21:27:38.368Z,3.75
2023-05-16T21:31:00.686Z,3.67
2023-05-16T21:34:22.970Z,3.13
2023-05-16T21:37:45.822Z,3.70
2023-05-16T21:41:08.177Z,2.97
2023-05-16T21:44:31.696Z,3.00
2023-05-16T21:47:54.181Z,3.60
2023-05-16T21:51:16.557Z,3.22
2023-05-16T21:54:38.866Z,2.20
2023-05-16T21:58:01.234Z,2.67
2023-05-16T22:01:25.382Z,1.70
2023-05-16T22:04:47.760Z,3.05
2023-05-16T22:08:10.154Z,2.78
2023-05-16T22:11:32.489Z,2.85
2023-05-16T22:14:55.044Z,1.67
2023-05-16T22:18:17.396Z,1.40
2023-05-16T22:21:39.687Z,1.92
2023-05-16T22:25:02.142Z,3.03
2023-05-16T22:28:24.456Z,1.95
2023-05-16T22:31:46.789Z,1.02
2023-05-16T22:35:09.206Z,2.28
2023-05-16T22:38:31.911Z,1.05
2023-05-16T22:41:54.300Z,3.53
2023-05-16T22:45:16.652Z,2.63
2023-05-16T22:48:38.946Z,2.03
2023-05-16T22:52:01.252Z,1.10
2023-05-16T22:55:23.656Z,2.03
2023-05-16T22:58:45.962Z,1.80
2023-05-16T23:02:08.363Z,2.03
2023-05-16T23:05:30.898Z,1.73
2023-05-16T23:08:53.257Z,1.83
2023-05-16T23:12:15.832Z,2.22
2023-05-16T23:15:38.188Z,1.48
2023-05-16T23:19:00.659Z,1.33
2023-05-16T23:22:22.996Z,0.75
2023-05-16T23:25:45.382Z,2.35
2023-05-16T23:29:08.035Z,1.52
2023-05-16T23:32:30.371Z,3.53
2023-05-16T23:35:52.672Z,1.83
2023-05-16T23:39:15.044Z,2.25
2023-05-16T23:42:37.424Z,0.80
2023-05-16T23:45:59.808Z,1.13
2023-05-16T23:49:22.067Z,3.58
2023-05-16T23:52:44.456Z,0.95
2023-05-16T23:56:06.889Z,1.60
2023-05-16T23:59:29.264Z,1.27
